sensor_id;sensor_type;location;lat;lon;timestamp;pressure;altitude;pressure_sealevel;temperature;humidity
28911;BME280;16028;42.642;23.310;2023-05-10T00:01:30;94250.41;;;9.84;100.00
28911;BME280;16028;42.642;23.310;2023-05-10T00:03:57;94242.06;;;9.81;100.00
28911;BME280;16028;42.642;23.310;2023-05-10T00:06:24;94240.56;;;9.78;100.00
28911;BME280;16028;42.642;23.310;2023-05-10T00:08:52;94242.34;;;9.78;100.00
28911;BME280;16028;42.642;23.310;2023-05-10T00:11:19;94240.69;;;9.77;100.00
28911;BME280;16028;42.642;23.310;2023-05-10T00:13:46;94233.44;;;9.80;100.00
28911;BME280;16028;42.642;23.310;2023-05-10T00:16:13;94234.94;;;9.73;100.00
28911;BME280;16028;42.642;23.310;2023-05-10T00:18:40;94239.19;;;9.65;100.00
28911;BME280;16028;42.642;23.310;2023-05-10T00:21:07;94234.81;;;9.65;100.00
28911;BME280;16028;42.642;23.310;2023-05-10T00:23:33;94230.03;;;9.70;100.00
28911;BME280;16028;42.642;23.310;2023-05-10T00:26:04;94230.19;;;9.69;100.00
28911;BME280;16028;42.642;23.310;2023-05-10T00:28:31;94236.03;;;9.61;100.00
28911;BME280;16028;42.642;23.310;2023-05-10T00:30:58;94229.50;;;9.57;100.00
28911;BME280;16028;42.642;23.310;2023-05-10T00:33:25;94235.63;;;9.56;100.00
28911;BME280;16028;42.642;23.310;2023-05-10T00:35:51;94231.28;;;9.66;100.00
28911;BME280;16028;42.642;23.310;2023-05-10T00:38:18;94227.41;;;9.61;100.00
28911;BME280;16028;42.642;23.310;2023-05-10T00:40:45;94225.53;;;9.53;100.00
28911;BME280;16028;42.642;23.310;2023-05-10T00:43:13;94223.88;;;9.52;100.00
28911;BME280;16028;42.642;23.310;2023-05-10T00:45:40;94218.41;;;9.55;100.00
28911;BME280;16028;42.642;23.310;2023-05-10T00:48:07;94217.59;;;9.54;100.00
28911;BME280;16028;42.642;23.310;2023-05-10T00:50:34;94215.13;;;9.43;100.00
28911;BME280;16028;42.642;23.310;2023-05-10T00:53:02;94213.47;;;9.42;100.00
28911;BME280;16028;42.642;23.310;2023-05-10T00:55:29;94208.84;;;9.46;100.00
28911;BME280;16028;42.642;23.310;2023-05-10T00:57:56;94206.91;;;9.48;100.00
28911;BME280;16028;42.642;23.310;2023-05-10T01:00:25;94205.97;;;9.49;100.00
28911;BME280;16028;42.642;23.310;2023-05-10T01:02:53;94207.19;;;9.45;100.00
28911;BME280;16028;42.642;23.310;2023-05-10T01:05:19;94208.28;;;9.42;100.00
28911;BME280;16028;42.642;23.310;2023-05-10T01:07:46;94208.84;;;9.36;100.00
28911;BME280;16028;42.642;23.310;2023-05-10T01:10:13;94206.13;;;9.47;100.00
28911;BME280;16028;42.642;23.310;2023-05-10T01:12:42;94209.66;;;9.46;100.00
28911;BME280;16028;42.642;23.310;2023-05-10T01:15:10;94208.56;;;9.39;100.00
28911;BME280;16028;42.642;23.310;2023-05-10T01:17:40;94198.19;;;9.39;100.00
28911;BME280;16028;42.642;23.310;2023-05-10T01:20:10;94202.97;;;9.34;100.00
28911;BME280;16028;42.642;23.310;2023-05-10T01:22:53;94191.34;;;9.48;100.00
28911;BME280;16028;42.642;23.310;2023-05-10T01:28:50;94190.00;;;9.34;100.00
28911;BME280;16028;42.642;23.310;2023-05-10T01:31:37;94186.69;;;9.32;100.00
28911;BME280;16028;42.642;23.310;2023-05-10T01:34:08;94184.53;;;9.37;100.00
28911;BME280;16028;42.642;23.310;2023-05-10T01:36:41;94185.63;;;9.35;100.00
28911;BME280;16028;42.642;23.310;2023-05-10T01:39:15;94180.94;;;9.29;100.00
28911;BME280;16028;42.642;23.310;2023-05-10T01:41:49;94177.84;;;9.25;100.00
28911;BME280;16028;42.642;23.310;2023-05-10T01:44:26;94175.63;;;9.21;100.00
28911;BME280;16028;42.642;23.310;2023-05-10T01:47:01;94161.84;;;9.30;100.00
28911;BME280;16028;42.642;23.310;2023-05-10T01:49:36;94172.22;;;9.20;100.00
28911;BME280;16028;42.642;23.310;2023-05-10T01:52:09;94171.81;;;9.15;100.00
28911;BME280;16028;42.642;23.310;2023-05-10T01:54:39;94172.19;;;9.11;100.00
28911;BME280;16028;42.642;23.310;2023-05-10T01:57:09;94168.22;;;9.16;100.00
28911;BME280;16028;42.642;23.310;2023-05-10T01:59:39;94165.25;;;9.11;100.00
28911;BME280;16028;42.642;23.310;2023-05-10T02:02:07;94167.28;;;8.98;100.00
28911;BME280;16028;42.642;23.310;2023-05-10T02:04:40;94164.81;;;8.96;100.00
28911;BME280;16028;42.642;23.310;2023-05-10T02:07:08;94169.47;;;8.93;100.00
28911;BME280;16028;42.642;23.310;2023-05-10T02:09:37;94167.28;;;8.98;100.00
28911;BME280;16028;42.642;23.310;2023-05-10T02:12:05;94167.94;;;9.00;100.00
28911;BME280;16028;42.642;23.310;2023-05-10T02:14:35;94163.03;;;8.97;100.00
28911;BME280;16028;42.642;23.310;2023-05-10T02:17:04;94167.53;;;8.95;100.00
28911;BME280;16028;42.642;23.310;2023-05-10T02:19:32;94156.75;;;8.90;100.00
28911;BME280;16028;42.642;23.310;2023-05-10T02:22:02;94156.03;;;8.88;100.00
28911;BME280;16028;42.642;23.310;2023-05-10T02:24:31;94156.03;;;8.78;100.00
28911;BME280;16028;42.642;23.310;2023-05-10T02:26:59;94161.06;;;8.70;100.00
28911;BME280;16028;42.642;23.310;2023-05-10T02:29:27;94159.81;;;8.65;100.00
28911;BME280;16028;42.642;23.310;2023-05-10T02:31:55;94165.63;;;8.47;100.00
28911;BME280;16028;42.642;23.310;2023-05-10T02:34:25;94168.59;;;8.43;100.00
28911;BME280;16028;42.642;23.310;2023-05-10T02:36:53;94160.63;;;8.25;100.00
28911;BME280;16028;42.642;23.310;2023-05-10T02:39:23;94160.69;;;8.14;100.00
28911;BME280;16028;42.642;23.310;2023-05-10T02:41:51;94162.84;;;8.09;100.00
28911;BME280;16028;42.642;23.310;2023-05-10T02:44:19;94155.47;;;8.05;100.00
28911;BME280;16028;42.642;23.310;2023-05-10T02:46:47;94162.44;;;8.14;100.00
28911;BME280;16028;42.642;23.310;2023-05-10T02:49:15;94163.94;;;8.07;100.00
28911;BME280;16028;42.642;23.310;2023-05-10T02:51:48;94153.13;;;8.02;100.00
28911;BME280;16028;42.642;23.310;2023-05-10T02:54:19;94155.28;;;7.96;100.00
28911;BME280;16028;42.642;23.310;2023-05-10T02:56:53;94145.63;;;7.98;100.00
28911;BME280;16028;42.642;23.310;2023-05-10T02:59:22;94147.25;;;7.99;100.00
28911;BME280;16028;42.642;23.310;2023-05-10T03:01:49;94145.63;;;7.98;100.00
28911;BME280;16028;42.642;23.310;2023-05-10T03:04:16;94151.88;;;7.96;100.00
28911;BME280;16028;42.642;23.310;2023-05-10T03:06:43;94151.88;;;7.96;100.00
28911;BME280;16028;42.642;23.310;2023-05-10T03:09:11;94146.59;;;7.97;100.00
28911;BME280;16028;42.642;23.310;2023-05-10T03:11:50;94151.00;;;8.07;100.00
28911;BME280;16028;42.642;23.310;2023-05-10T03:14:33;94153.00;;;8.03;100.00
28911;BME280;16028;42.642;23.310;2023-05-10T03:17:05;94150.28;;;8.05;100.00
28911;BME280;16028;42.642;23.310;2023-05-10T03:19:39;94146.44;;;7.99;100.00
28911;BME280;16028;42.642;23.310;2023-05-10T03:22:11;94154.59;;;7.94;100.00
28911;BME280;16028;42.642;23.310;2023-05-10T03:24:41;94145.75;;;7.97;100.00
28911;BME280;16028;42.642;23.310;2023-05-10T03:27:10;94144.00;;;7.97;100.00
28911;BME280;16028;42.642;23.310;2023-05-10T03:29:38;94154.63;;;8.04;100.00
28911;BME280;16028;42.642;23.310;2023-05-10T03:32:05;94160.91;;;8.02;100.00
28911;BME280;16028;42.642;23.310;2023-05-10T03:34:32;94162.81;;;7.99;100.00
28911;BME280;16028;42.642;23.310;2023-05-10T03:36:59;94167.59;;;8.04;100.00
28911;BME280;16028;42.642;23.310;2023-05-10T03:39:26;94166.38;;;8.08;100.00
28911;BME280;16028;42.642;23.310;2023-05-10T03:41:52;94168.41;;;8.05;100.00
28911;BME280;16028;42.642;23.310;2023-05-10T03:44:20;94171.56;;;8.08;100.00
28911;BME280;16028;42.642;23.310;2023-05-10T03:46:47;94172.53;;;8.07;100.00
28911;BME280;16028;42.642;23.310;2023-05-10T03:49:14;94167.97;;;7.99;100.00
28911;BME280;16028;42.642;23.310;2023-05-10T03:51:41;94175.50;;;8.03;100.00
28911;BME280;16028;42.642;23.310;2023-05-10T03:54:08;94181.50;;;8.03;100.00
28911;BME280;16028;42.642;23.310;2023-05-10T03:56:34;94182.13;;;7.95;100.00
28911;BME280;16028;42.642;23.310;2023-05-10T03:59:03;94191.81;;;7.93;100.00
28911;BME280;16028;42.642;23.310;2023-05-10T04:01:34;94189.22;;;7.93;100.00
28911;BME280;16028;42.642;23.310;2023-05-10T04:04:00;94182.00;;;7.97;100.00
28911;BME280;16028;42.642;23.310;2023-05-10T04:06:27;94190.97;;;7.93;100.00
28911;BME280;16028;42.642;23.310;2023-05-10T04:08:54;94187.41;;;7.84;100.00
28911;BME280;16028;42.642;23.310;2023-05-10T04:11:21;94198.44;;;7.86;100.00
28911;BME280;16028;42.642;23.310;2023-05-10T04:13:48;94192.56;;;7.84;100.00
28911;BME280;16028;42.642;23.310;2023-05-10T04:16:15;94193.56;;;7.93;100.00
28911;BME280;16028;42.642;23.310;2023-05-10T04:18:46;94195.03;;;7.86;100.00
28911;BME280;16028;42.642;23.310;2023-05-10T04:21:13;94205.94;;;7.89;100.00
28911;BME280;16028;42.642;23.310;2023-05-10T04:23:40;94203.63;;;7.86;100.00
28911;BME280;16028;42.642;23.310;2023-05-10T04:26:07;94212.31;;;7.85;100.00
28911;BME280;16028;42.642;23.310;2023-05-10T04:28:34;94205.53;;;7.84;100.00
28911;BME280;16028;42.642;23.310;2023-05-10T04:31:02;94199.53;;;7.84;100.00
28911;BME280;16028;42.642;23.310;2023-05-10T04:33:29;94198.19;;;7.89;100.00
28911;BME280;16028;42.642;23.310;2023-05-10T04:35:57;94192.44;;;7.86;100.00
28911;BME280;16028;42.642;23.310;2023-05-10T04:38:24;94200.09;;;7.87;100.00
28911;BME280;16028;42.642;23.310;2023-05-10T04:40:51;94203.63;;;7.86;100.00
28911;BME280;16028;42.642;23.310;2023-05-10T04:43:18;94209.47;;;7.88;100.00
28911;BME280;16028;42.642;23.310;2023-05-10T04:45:44;94205.94;;;7.89;100.00
28911;BME280;16028;42.642;23.310;2023-05-10T04:48:11;94202.03;;;7.95;100.00
28911;BME280;16028;42.642;23.310;2023-05-10T04:50:39;94195.66;;;7.99;100.00
28911;BME280;16028;42.642;23.310;2023-05-10T04:53:07;94194.19;;;8.06;100.00
28911;BME280;16028;42.642;23.310;2023-05-10T04:55:34;94202.09;;;8.05;100.00
28911;BME280;16028;42.642;23.310;2023-05-10T04:58:00;94201.81;;;8.08;100.00
28911;BME280;16028;42.642;23.310;2023-05-10T05:00:28;94197.94;;;8.13;100.00
28911;BME280;16028;42.642;23.310;2023-05-10T05:02:54;94200.09;;;8.18;100.00
28911;BME280;16028;42.642;23.310;2023-05-10T05:05:21;94207.25;;;8.25;100.00
28911;BME280;16028;42.642;23.310;2023-05-10T05:07:48;94207.03;;;8.28;100.00
28911;BME280;16028;42.642;23.310;2023-05-10T05:10:16;94203.34;;;8.31;100.00
28911;BME280;16028;42.642;23.310;2023-05-10T05:12:43;94209.66;;;8.38;100.00
28911;BME280;16028;42.642;23.310;2023-05-10T05:15:10;94218.94;;;8.40;99.95
28911;BME280;16028;42.642;23.310;2023-05-10T05:17:37;94227.84;;;8.47;100.00
28911;BME280;16028;42.642;23.310;2023-05-10T05:20:05;94217.47;;;8.47;99.75
28911;BME280;16028;42.642;23.310;2023-05-10T05:22:32;94219.81;;;8.50;100.00
28911;BME280;16028;42.642;23.310;2023-05-10T05:24:59;94219.56;;;8.54;100.00
28911;BME280;16028;42.642;23.310;2023-05-10T05:27:29;94219.97;;;8.59;100.00
28911;BME280;16028;42.642;23.310;2023-05-10T05:29:56;94223.00;;;8.64;100.00
28911;BME280;16028;42.642;23.310;2023-05-10T05:32:23;94222.84;;;8.65;100.00
28911;BME280;16028;42.642;23.310;2023-05-10T05:34:50;94226.03;;;8.69;100.00
28911;BME280;16028;42.642;23.310;2023-05-10T05:37:18;94236.38;;;8.69;100.00
28911;BME280;16028;42.642;23.310;2023-05-10T05:39:45;94230.38;;;8.68;99.61
28911;BME280;16028;42.642;23.310;2023-05-10T05:42:12;94240.19;;;8.65;100.00
28911;BME280;16028;42.642;23.310;2023-05-10T05:44:41;94233.38;;;8.64;100.00
28911;BME280;16028;42.642;23.310;2023-05-10T05:47:08;94238.56;;;8.64;100.00
28911;BME280;16028;42.642;23.310;2023-05-10T05:49:35;94237.38;;;8.68;100.00
28911;BME280;16028;42.642;23.310;2023-05-10T05:52:03;94242.78;;;8.65;100.00
28911;BME280;16028;42.642;23.310;2023-05-10T05:54:30;94244.56;;;8.64;100.00
28911;BME280;16028;42.642;23.310;2023-05-10T05:56:58;94250.69;;;8.63;100.00
28911;BME280;16028;42.642;23.310;2023-05-10T05:59:25;94256.72;;;8.64;100.00
28911;BME280;16028;42.642;23.310;2023-05-10T06:01:54;94243.59;;;8.65;100.00
28911;BME280;16028;42.642;23.310;2023-05-10T06:04:20;94251.53;;;8.64;100.00
28911;BME280;16028;42.642;23.310;2023-05-10T06:06:47;94249.50;;;8.67;100.00
28911;BME280;16028;42.642;23.310;2023-05-10T06:09:14;94253.03;;;8.66;100.00
28911;BME280;16028;42.642;23.310;2023-05-10T06:11:41;94251.13;;;8.68;100.00
28911;BME280;16028;42.642;23.310;2023-05-10T06:14:08;94245.56;;;8.73;100.00
28911;BME280;16028;42.642;23.310;2023-05-10T06:16:34;94257.44;;;8.75;100.00
28911;BME280;16028;42.642;23.310;2023-05-10T06:19:03;94247.38;;;8.82;100.00
28911;BME280;16028;42.642;23.310;2023-05-10T06:21:30;94249.03;;;8.92;100.00
28911;BME280;16028;42.642;23.310;2023-05-10T06:23:57;94253.97;;;8.95;100.00
28911;BME280;16028;42.642;23.310;2023-05-10T06:26:23;94259.00;;;8.97;100.00
28911;BME280;16028;42.642;23.310;2023-05-10T06:28:50;94263.66;;;9.03;100.00
28911;BME280;16028;42.642;23.310;2023-05-10T06:31:17;94261.78;;;9.05;99.72
28911;BME280;16028;42.642;23.310;2023-05-10T06:33:44;94262.91;;;9.12;99.78
28911;BME280;16028;42.642;23.310;2023-05-10T06:36:12;94263.84;;;9.11;98.76
28911;BME280;16028;42.642;23.310;2023-05-10T06:38:40;94260.97;;;9.14;98.44
28911;BME280;16028;42.642;23.310;2023-05-10T06:41:06;94270.81;;;9.11;98.86
28911;BME280;16028;42.642;23.310;2023-05-10T06:43:33;94265.91;;;9.17;99.22
28911;BME280;16028;42.642;23.310;2023-05-10T06:46:00;94267.13;;;9.13;97.61
28911;BME280;16028;42.642;23.310;2023-05-10T06:48:27;94271.09;;;9.17;97.08
28911;BME280;16028;42.642;23.310;2023-05-10T06:50:53;94260.44;;;9.20;96.73
28911;BME280;16028;42.642;23.310;2023-05-10T06:53:21;94264.69;;;9.21;96.89
28911;BME280;16028;42.642;23.310;2023-05-10T06:55:49;94262.09;;;9.21;97.75
28911;BME280;16028;42.642;23.310;2023-05-10T06:58:16;94264.97;;;9.18;97.67
28911;BME280;16028;42.642;23.310;2023-05-10T07:00:43;94271.91;;;9.18;98.05
28911;BME280;16028;42.642;23.310;2023-05-10T07:03:10;94259.09;;;9.26;98.01
28911;BME280;16028;42.642;23.310;2023-05-10T07:05:37;94267.84;;;9.25;96.75
28911;BME280;16028;42.642;23.310;2023-05-10T07:08:04;94274.09;;;9.22;96.87
28911;BME280;16028;42.642;23.310;2023-05-10T07:10:32;94278.88;;;9.17;96.98
28911;BME280;16028;42.642;23.310;2023-05-10T07:12:59;94279.81;;;9.16;96.07
28911;BME280;16028;42.642;23.310;2023-05-10T07:15:26;94273.84;;;9.16;96.00
28911;BME280;16028;42.642;23.310;2023-05-10T07:17:53;94279.81;;;9.16;96.32
28911;BME280;16028;42.642;23.310;2023-05-10T07:20:20;94281.63;;;9.16;96.75
28911;BME280;16028;42.642;23.310;2023-05-10T07:22:47;94282.69;;;9.13;94.83
28911;BME280;16028;42.642;23.310;2023-05-10T07:25:14;94286.25;;;9.12;96.11
28911;BME280;16028;42.642;23.310;2023-05-10T07:27:42;94289.25;;;9.17;96.16
28911;BME280;16028;42.642;23.310;2023-05-10T07:30:09;94287.50;;;9.18;94.54
28911;BME280;16028;42.642;23.310;2023-05-10T07:32:37;94287.22;;;9.21;93.88
28911;BME280;16028;42.642;23.310;2023-05-10T07:35:05;94290.66;;;9.21;95.82
28911;BME280;16028;42.642;23.310;2023-05-10T07:37:32;94289.44;;;9.25;95.93
28911;BME280;16028;42.642;23.310;2023-05-10T07:39:58;94292.72;;;9.27;96.21
28911;BME280;16028;42.642;23.310;2023-05-10T07:42:25;94290.94;;;9.28;95.91
28911;BME280;16028;42.642;23.310;2023-05-10T07:44:53;94295.16;;;9.29;95.54
28911;BME280;16028;42.642;23.310;2023-05-10T07:47:20;94299.41;;;9.30;95.81
28911;BME280;16028;42.642;23.310;2023-05-10T07:49:47;94300.06;;;9.32;95.02
28911;BME280;16028;42.642;23.310;2023-05-10T07:52:14;94290.81;;;9.39;93.71
28911;BME280;16028;42.642;23.310;2023-05-10T07:54:40;94295.06;;;9.40;94.15
28911;BME280;16028;42.642;23.310;2023-05-10T07:57:07;94304.78;;;9.38;94.44
28911;BME280;16028;42.642;23.310;2023-05-10T07:59:34;94297.00;;;9.47;93.81
28911;BME280;16028;42.642;23.310;2023-05-10T08:02:04;94289.47;;;9.44;93.35
28911;BME280;16028;42.642;23.310;2023-05-10T08:04:31;94297.38;;;9.43;93.19
28911;BME280;16028;42.642;23.310;2023-05-10T08:06:58;94296.28;;;9.45;93.39
28911;BME280;16028;42.642;23.310;2023-05-10T08:09:25;94296.03;;;9.48;92.74
28911;BME280;16028;42.642;23.310;2023-05-10T08:11:51;94296.84;;;9.49;93.23
28911;BME280;16028;42.642;23.310;2023-05-10T08:14:18;94301.38;;;9.56;93.03
28911;BME280;16028;42.642;23.310;2023-05-10T08:16:45;94309.28;;;9.55;92.29
28911;BME280;16028;42.642;23.310;2023-05-10T08:19:13;94303.97;;;9.56;93.28
28911;BME280;16028;42.642;23.310;2023-05-10T08:21:44;94310.41;;;9.62;92.91
28911;BME280;16028;42.642;23.310;2023-05-10T08:24:11;94307.28;;;9.68;91.89
28911;BME280;16028;42.642;23.310;2023-05-10T08:26:38;94303.84;;;9.68;92.49
28911;BME280;16028;42.642;23.310;2023-05-10T08:29:04;94303.19;;;9.75;92.87
28911;BME280;16028;42.642;23.310;2023-05-10T08:31:31;94302.63;;;9.72;90.96
28911;BME280;16028;42.642;23.310;2023-05-10T08:33:58;94303.31;;;9.74;92.55
28911;BME280;16028;42.642;23.310;2023-05-10T08:36:27;94308.78;;;9.80;91.97
28911;BME280;16028;42.642;23.310;2023-05-10T08:38:54;94302.63;;;9.91;93.19
28911;BME280;16028;42.642;23.310;2023-05-10T08:41:21;94307.97;;;9.89;93.59
28911;BME280;16028;42.642;23.310;2023-05-10T08:43:51;94313.03;;;9.91;94.53
28911;BME280;16028;42.642;23.310;2023-05-10T08:46:19;94304.03;;;9.95;95.90
28911;BME280;16028;42.642;23.310;2023-05-10T08:48:49;94301.41;;;9.95;94.51
28911;BME280;16028;42.642;23.310;2023-05-10T08:51:18;94300.44;;;9.96;95.29
28911;BME280;16028;42.642;23.310;2023-05-10T08:53:48;94300.44;;;9.96;96.16
28911;BME280;16028;42.642;23.310;2023-05-10T08:56:15;94306.63;;;9.95;95.39
28911;BME280;16028;42.642;23.310;2023-05-10T08:58:43;94300.03;;;9.91;96.15
28911;BME280;16028;42.642;23.310;2023-05-10T09:01:11;94305.91;;;9.93;96.26
28911;BME280;16028;42.642;23.310;2023-05-10T09:03:39;94306.72;;;9.84;95.98
28911;BME280;16028;42.642;23.310;2023-05-10T09:06:06;94298.38;;;9.90;97.21
28911;BME280;16028;42.642;23.310;2023-05-10T09:08:33;94303.88;;;9.87;96.27
28911;BME280;16028;42.642;23.310;2023-05-10T09:11:02;94307.28;;;9.78;95.98
28911;BME280;16028;42.642;23.310;2023-05-10T09:13:29;94308.38;;;9.75;97.51
28911;BME280;16028;42.642;23.310;2023-05-10T09:15:56;94309.88;;;9.68;97.09
28911;BME280;16028;42.642;23.310;2023-05-10T09:18:23;94306.72;;;9.74;97.81
28911;BME280;16028;42.642;23.310;2023-05-10T09:20:50;94297.16;;;9.75;97.95
28911;BME280;16028;42.642;23.310;2023-05-10T09:23:16;94293.63;;;9.76;98.01
28911;BME280;16028;42.642;23.310;2023-05-10T09:25:43;94302.22;;;9.67;97.34
28911;BME280;16028;42.642;23.310;2023-05-10T09:28:14;94291.28;;;9.73;98.28
28911;BME280;16028;42.642;23.310;2023-05-10T09:30:40;94300.16;;;9.70;97.74
28911;BME280;16028;42.642;23.310;2023-05-10T09:33:08;94291.84;;;9.67;96.76
28911;BME280;16028;42.642;23.310;2023-05-10T09:35:34;94296.59;;;9.71;96.63
28911;BME280;16028;42.642;23.310;2023-05-10T09:38:08;94294.56;;;9.75;96.75
28911;BME280;16028;42.642;23.310;2023-05-10T09:40:37;94292.78;;;9.75;97.83
28911;BME280;16028;42.642;23.310;2023-05-10T09:43:07;94283.78;;;9.79;96.20
28911;BME280;16028;42.642;23.310;2023-05-10T09:45:36;94298.53;;;9.79;95.76
28911;BME280;16028;42.642;23.310;2023-05-10T09:48:03;94298.53;;;9.79;95.74
28911;BME280;16028;42.642;23.310;2023-05-10T09:50:31;94303.84;;;9.77;96.06
28911;BME280;16028;42.642;23.310;2023-05-10T09:53:01;94288.69;;;9.82;95.87
28911;BME280;16028;42.642;23.310;2023-05-10T09:55:38;94289.25;;;9.86;95.30
28911;BME280;16028;42.642;23.310;2023-05-10T09:58:06;94287.44;;;9.86;94.17
28911;BME280;16028;42.642;23.310;2023-05-10T10:00:38;94283.78;;;9.89;94.83
28911;BME280;16028;42.642;23.310;2023-05-10T10:03:11;94284.06;;;9.95;95.59
28911;BME280;16028;42.642;23.310;2023-05-10T10:05:40;94287.88;;;10.01;94.18
28911;BME280;16028;42.642;23.310;2023-05-10T10:08:08;94275.28;;;10.06;94.46
28911;BME280;16028;42.642;23.310;2023-05-10T10:10:34;94266.25;;;10.10;95.51
28911;BME280;16028;42.642;23.310;2023-05-10T10:13:02;94265.31;;;10.21;94.81
28911;BME280;16028;42.642;23.310;2023-05-10T10:15:30;94262.44;;;10.33;95.00
28911;BME280;16028;42.642;23.310;2023-05-10T10:17:59;94262.56;;;10.32;91.92
28911;BME280;16028;42.642;23.310;2023-05-10T10:20:28;94269.66;;;10.39;92.43
28911;BME280;16028;42.642;23.310;2023-05-10T10:22:55;94273.34;;;10.46;91.50
28911;BME280;16028;42.642;23.310;2023-05-10T10:25:22;94266.22;;;10.48;91.92
28911;BME280;16028;42.642;23.310;2023-05-10T10:28:01;94274.28;;;10.55;91.17
28911;BME280;16028;42.642;23.310;2023-05-10T10:30:35;94266.88;;;10.60;91.00
28911;BME280;16028;42.642;23.310;2023-05-10T10:33:18;94261.66;;;10.60;90.32
28911;BME280;16028;42.642;23.310;2023-05-10T10:35:52;94269.63;;;10.58;89.71
28911;BME280;16028;42.642;23.310;2023-05-10T10:38:20;94276.72;;;10.56;89.48
28911;BME280;16028;42.642;23.310;2023-05-10T10:40:48;94278.63;;;10.64;89.28
28911;BME280;16028;42.642;23.310;2023-05-10T10:43:22;94282.63;;;10.58;88.25
28911;BME280;16028;42.642;23.310;2023-05-10T10:46:14;94280.03;;;10.58;88.83
28911;BME280;16028;42.642;23.310;2023-05-10T10:48:47;94275.38;;;10.62;89.95
28911;BME280;16028;42.642;23.310;2023-05-10T10:51:14;94270.56;;;10.57;88.89
28911;BME280;16028;42.642;23.310;2023-05-10T10:53:42;94263.03;;;10.64;89.32
28911;BME280;16028;42.642;23.310;2023-05-10T10:56:10;94257.81;;;10.64;90.10
28911;BME280;16028;42.642;23.310;2023-05-10T10:58:39;94274.09;;;10.66;89.40
28911;BME280;16028;42.642;23.310;2023-05-10T11:01:13;94273.44;;;10.64;88.51
28911;BME280;16028;42.642;23.310;2023-05-10T11:04:17;94276.69;;;10.66;89.26
28911;BME280;16028;42.642;23.310;2023-05-10T11:06:43;94272.59;;;10.63;89.23
28911;BME280;16028;42.642;23.310;2023-05-10T11:09:11;94269.06;;;10.65;90.31
28911;BME280;16028;42.642;23.310;2023-05-10T11:11:50;94264.94;;;10.72;89.28
28911;BME280;16028;42.642;23.310;2023-05-10T11:14:20;94272.56;;;10.73;89.87
28911;BME280;16028;42.642;23.310;2023-05-10T11:16:47;94269.69;;;10.76;89.24
28911;BME280;16028;42.642;23.310;2023-05-10T11:19:16;94252.44;;;10.85;87.93
28911;BME280;16028;42.642;23.310;2023-05-10T11:21:46;94264.16;;;10.89;87.66
28911;BME280;16028;42.642;23.310;2023-05-10T11:24:15;94273.34;;;10.93;88.10
28911;BME280;16028;42.642;23.310;2023-05-10T11:26:42;94271.31;;;10.87;87.28
28911;BME280;16028;42.642;23.310;2023-05-10T11:29:09;94261.56;;;10.89;87.27
28911;BME280;16028;42.642;23.310;2023-05-10T11:31:42;94265.66;;;10.91;87.75
28911;BME280;16028;42.642;23.310;2023-05-10T11:34:09;94267.22;;;10.84;87.37
28911;BME280;16028;42.642;23.310;2023-05-10T11:36:37;94275.84;;;10.85;87.60
28911;BME280;16028;42.642;23.310;2023-05-10T11:39:05;94267.50;;;10.81;86.52
28911;BME280;16028;42.642;23.310;2023-05-10T11:41:32;94273.09;;;10.86;86.45
28911;BME280;16028;42.642;23.310;2023-05-10T11:43:59;94269.00;;;10.84;86.91
28911;BME280;16028;42.642;23.310;2023-05-10T11:46:27;94271.72;;;10.82;87.69
28911;BME280;16028;42.642;23.310;2023-05-10T11:48:57;94274.31;;;10.82;87.69
28911;BME280;16028;42.642;23.310;2023-05-10T11:51:25;94267.22;;;10.84;88.49
28911;BME280;16028;42.642;23.310;2023-05-10T11:53:56;94274.31;;;10.82;88.04
28911;BME280;16028;42.642;23.310;2023-05-10T11:56:23;94265.84;;;10.80;87.81
28911;BME280;16028;42.642;23.310;2023-05-10T11:58:55;94272.44;;;10.75;87.11
28911;BME280;16028;42.642;23.310;2023-05-10T12:01:23;94268.88;;;10.76;88.13
28911;BME280;16028;42.642;23.310;2023-05-10T12:03:51;94271.47;;;10.76;88.50
28911;BME280;16028;42.642;23.310;2023-05-10T12:06:19;94270.75;;;10.83;88.81
28911;BME280;16028;42.642;23.310;2023-05-10T12:08:49;94259.50;;;10.92;88.37
28911;BME280;16028;42.642;23.310;2023-05-10T12:11:24;94264.56;;;10.94;89.40
28911;BME280;16028;42.642;23.310;2023-05-10T12:13:52;94261.38;;;11.00;88.67
28911;BME280;16028;42.642;23.310;2023-05-10T12:16:20;94262.34;;;10.99;88.99
28911;BME280;16028;42.642;23.310;2023-05-10T12:18:48;94257.59;;;10.94;88.42
28911;BME280;16028;42.642;23.310;2023-05-10T12:21:19;94251.97;;;10.89;87.82
28911;BME280;16028;42.642;23.310;2023-05-10T12:23:47;94245.81;;;10.90;88.40
28911;BME280;16028;42.642;23.310;2023-05-10T12:26:15;94250.44;;;10.96;89.43
28911;BME280;16028;42.642;23.310;2023-05-10T12:28:43;94257.38;;;11.05;88.31
28911;BME280;16028;42.642;23.310;2023-05-10T12:31:10;94249.72;;;11.04;87.59
28911;BME280;16028;42.642;23.310;2023-05-10T12:33:38;94247.69;;;10.98;87.53
28911;BME280;16028;42.642;23.310;2023-05-10T12:36:07;94242.38;;;10.90;87.88
28911;BME280;16028;42.642;23.310;2023-05-10T12:38:35;94253.47;;;10.92;87.70
28911;BME280;16028;42.642;23.310;2023-05-10T12:41:04;94239.13;;;10.88;86.82
28911;BME280;16028;42.642;23.310;2023-05-10T12:43:32;94237.88;;;10.82;86.81
28911;BME280;16028;42.642;23.310;2023-05-10T12:46:04;94243.91;;;10.83;88.49
28911;BME280;16028;42.642;23.310;2023-05-10T12:48:31;94247.22;;;10.85;88.18
28911;BME280;16028;42.642;23.310;2023-05-10T12:50:59;94240.38;;;10.84;87.71
28911;BME280;16028;42.642;23.310;2023-05-10T12:53:26;94243.78;;;10.84;88.35
28911;BME280;16028;42.642;23.310;2023-05-10T12:55:53;94239.25;;;10.86;88.08
28911;BME280;16028;42.642;23.310;2023-05-10T12:58:19;94237.06;;;10.82;88.09
28911;BME280;16028;42.642;23.310;2023-05-10T13:00:46;94232.56;;;10.84;88.32
28911;BME280;16028;42.642;23.310;2023-05-10T13:03:14;94229.66;;;10.87;88.59